createdAt,value
2019-02-12T14:17:47.897Z,384.00
2019-02-12T14:18:47.841Z,352.00
2019-02-12T14:26:42.602Z,260.00
2019-02-12T14:27:42.584Z,268.00
2019-02-12T14:28:42.551Z,260.00
2019-02-12T14:29:42.541Z,264.00
2019-02-12T14:30:42.528Z,272.00
2019-02-12T14:31:42.520Z,268.00
2019-02-12T14:32:42.529Z,260.00
2019-02-12T14:33:42.499Z,200.00
2019-02-12T14:34:42.487Z,216.00
2019-02-12T14:35:42.474Z,180.00
2019-02-12T14:36:42.463Z,216.00
2019-02-12T14:37:42.476Z,204.00
2019-02-12T14:38:42.492Z,192.00
2019-02-12T14:39:42.433Z,216.00
2019-02-12T14:40:42.419Z,180.00
2019-02-12T14:41:42.407Z,180.00
2019-02-12T14:42:42.422Z,180.00
2019-02-12T14:43:42.405Z,180.00
2019-02-12T14:47:10.828Z,164.00
2019-02-12T14:48:10.794Z,160.00
2019-02-12T14:49:10.787Z,156.00
2019-02-12T14:50:10.775Z,164.00
2019-02-12T14:51:10.759Z,164.00
2019-02-12T14:52:10.768Z,156.00
2019-02-12T14:53:10.742Z,168.00
2019-02-12T14:54:10.723Z,168.00
2019-02-12T14:55:10.745Z,172.00
2019-02-12T14:56:11.536Z,172.00
2019-02-12T14:57:10.731Z,164.00
2019-02-12T14:58:10.684Z,160.00
2019-02-12T14:59:10.671Z,156.00
2019-02-12T15:00:10.657Z,152.00
2019-02-12T15:01:10.650Z,148.00
2019-02-12T15:02:10.637Z,148.00
2019-02-12T15:03:10.643Z,152.00
2019-02-12T15:04:10.621Z,156.00
2019-02-12T15:05:10.633Z,152.00
2019-02-12T15:06:10.598Z,152.00
2019-02-12T15:07:10.583Z,152.00
2019-02-12T15:08:10.594Z,152.00
2019-02-12T15:09:10.559Z,156.00
2019-02-12T15:10:10.551Z,156.00
2019-02-12T15:11:10.539Z,152.00
2019-02-12T15:12:10.526Z,148.00
2019-02-12T15:13:10.539Z,148.00
2019-02-12T15:14:10.513Z,144.00
2019-02-12T15:15:10.594Z,144.00
2019-02-12T15:16:10.483Z,140.00
2019-02-12T15:17:10.478Z,140.00
2019-02-12T15:18:10.490Z,140.00
2019-02-12T15:19:10.451Z,136.00
2019-02-12T15:20:10.443Z,136.00
2019-02-12T15:21:10.432Z,132.00
2019-02-12T15:22:10.418Z,132.00
2019-02-12T15:23:10.407Z,132.00
2019-02-12T15:24:10.464Z,128.00
2019-02-12T15:25:10.386Z,124.00
2019-02-12T15:26:10.389Z,124.00
2019-02-12T15:27:10.362Z,120.00
2019-02-12T15:29:40.797Z,112.00
2019-02-12T15:30:40.781Z,112.00
2019-02-12T15:31:40.747Z,116.00
2019-02-12T15:32:40.735Z,116.00
2019-02-12T15:33:40.726Z,108.00
2019-02-12T15:34:40.749Z,104.00
2019-02-12T15:35:40.712Z,100.00
2019-02-12T15:36:40.696Z,100.00
2019-02-12T15:37:40.681Z,104.00
2019-02-12T15:38:40.669Z,108.00
2019-02-12T15:39:40.706Z,108.00
2019-02-12T15:40:40.652Z,108.00
2019-02-12T15:41:40.638Z,108.00
2019-02-12T15:42:40.649Z,104.00
2019-02-12T15:43:40.621Z,100.00
2019-02-12T15:44:40.633Z,96.00
2019-02-12T15:45:40.619Z,96.00
2019-02-12T15:46:40.618Z,92.00
2019-02-12T15:47:40.574Z,92.00
2019-02-12T15:48:40.572Z,92.00
2019-02-12T15:49:40.599Z,88.00
2019-02-12T15:50:40.552Z,84.00
2019-02-12T15:51:40.532Z,84.00
2019-02-12T15:52:40.522Z,80.00
2019-02-12T15:53:40.508Z,80.00
2019-02-12T15:54:40.499Z,80.00
2019-02-12T15:55:42.272Z,64.00
2019-02-12T15:56:41.475Z,64.00
2019-02-12T15:57:43.112Z,52.00
2019-02-12T15:58:41.448Z,52.00
2019-02-12T15:59:40.438Z,52.00
2019-02-12T16:00:41.525Z,48.00
2019-02-12T16:01:40.427Z,40.00
2019-02-12T16:02:40.410Z,36.00
2019-02-12T16:03:40.396Z,32.00
2019-02-12T16:04:40.385Z,32.00
2019-02-12T16:05:41.341Z,28.00
2019-02-12T16:06:42.394Z,28.00
2019-02-12T16:07:40.351Z,28.00
2019-02-12T16:08:40.343Z,28.00
2019-02-12T16:09:41.664Z,28.00
2019-02-12T16:10:41.943Z,24.00
2019-02-12T16:11:41.946Z,24.00
2019-02-12T16:12:40.304Z,24.00
2019-02-12T16:13:40.290Z,24.00
2019-02-12T16:14:42.103Z,28.00
2019-02-12T16:15:40.266Z,28.00
2019-02-12T16:16:40.303Z,28.00
2019-02-12T16:17:40.241Z,28.00
2019-02-12T16:18:40.231Z,24.00
2019-02-12T16:19:40.220Z,28.00
2019-02-12T16:20:40.216Z,28.00
2019-02-12T16:21:40.211Z,28.00
2019-02-12T16:22:40.216Z,24.00
2019-02-12T16:23:40.178Z,20.00
2019-02-12T16:24:40.363Z,20.00
2019-02-12T16:25:40.167Z,20.00
2019-02-12T16:26:40.144Z,20.00
2019-02-12T16:27:40.151Z,20.00
2019-02-12T16:28:40.118Z,16.00
2019-02-12T16:29:40.585Z,16.00
2019-02-12T16:30:40.096Z,16.00
2019-02-12T16:31:40.088Z,16.00
2019-02-12T16:32:40.113Z,16.00
2019-02-12T16:33:40.072Z,12.00
2019-02-12T16:35:15.815Z,12.00
2019-02-12T16:35:40.096Z,12.00
2019-02-12T16:36:40.032Z,8.00
2019-02-12T16:37:40.039Z,12.00
2019-02-12T16:38:40.009Z,8.00
2019-02-12T16:39:40.984Z,8.00
2019-02-12T16:40:39.986Z,8.00
2019-02-12T16:41:39.993Z,4.00
2019-02-12T16:42:40.011Z,8.00
2019-02-12T16:43:40.018Z,8.00
2019-02-12T16:44:39.942Z,4.00
2019-02-12T16:45:39.940Z,4.00
2019-02-12T16:46:39.924Z,4.00
2019-02-12T16:47:40.071Z,4.00
2019-02-12T16:48:39.978Z,4.00
2019-02-12T16:49:39.923Z,4.00
2019-02-12T16:50:39.873Z,4.00
2019-02-12T16:51:39.887Z,0.00
2019-02-12T16:52:39.925Z,0.00
2019-02-12T16:53:39.976Z,4.00
2019-02-12T16:54:39.844Z,4.00
2019-02-12T16:55:39.880Z,4.00
2019-02-12T16:56:39.889Z,0.00
2019-02-12T16:57:39.910Z,0.00
2019-02-12T16:58:39.806Z,0.00
2019-02-12T16:59:39.906Z,0.00
2019-02-12T17:00:39.765Z,0.00
2019-02-12T17:01:39.752Z,0.00
2019-02-12T17:02:39.763Z,0.00
2019-02-12T17:03:39.730Z,0.00
2019-02-12T17:04:39.720Z,0.00
2019-02-12T17:05:39.717Z,0.00
2019-02-12T17:06:39.695Z,0.00
2019-02-12T17:07:39.734Z,0.00
2019-02-12T17:08:39.678Z,0.00
2019-02-12T17:09:39.663Z,0.00
2019-02-12T17:10:39.656Z,0.00
2019-02-12T17:11:39.655Z,0.00
2019-02-12T17:12:39.628Z,0.00
2019-02-12T17:13:39.641Z,0.00
2019-02-12T17:14:39.609Z,0.00
2019-02-12T17:15:39.594Z,0.00
2019-02-12T17:16:39.590Z,0.00
2019-02-12T17:17:39.628Z,0.00
2019-02-12T17:18:39.641Z,0.00
2019-02-12T17:19:39.551Z,0.00
2019-02-12T17:20:39.544Z,0.00
2019-02-12T17:21:39.540Z,0.00
2019-02-12T17:22:39.521Z,0.00
2019-02-12T17:23:39.533Z,0.00
2019-02-12T17:24:39.502Z,0.00
2019-02-12T17:25:39.486Z,0.00
2019-02-12T17:26:39.475Z,0.00
2019-02-12T17:27:39.470Z,0.00
2019-02-12T17:28:39.484Z,0.00
2019-02-12T17:29:39.475Z,0.00
2019-02-12T17:30:39.526Z,0.00
2019-02-12T17:31:39.766Z,0.00
2019-02-12T17:32:39.408Z,0.00
2019-02-12T17:33:39.430Z,0.00
2019-02-12T17:34:39.453Z,0.00
2019-02-12T17:35:39.386Z,0.00
2019-02-12T17:36:39.506Z,0.00
2019-02-12T17:37:39.567Z,0.00
2019-02-12T17:38:39.432Z,0.00
2019-02-12T17:39:39.415Z,0.00
2019-02-12T17:40:39.388Z,0.00
2019-02-12T17:41:39.326Z,0.00
2019-02-12T17:42:39.421Z,0.00
2019-02-12T17:43:39.416Z,0.00
2019-02-12T17:44:39.289Z,0.00
2019-02-12T17:45:39.298Z,0.00
2019-02-12T17:46:39.286Z,0.00
2019-02-12T17:47:39.242Z,0.00
2019-02-12T17:48:39.321Z,0.00
2019-02-12T17:49:39.219Z,0.00
2019-02-12T17:50:39.210Z,0.00
2019-02-12T17:51:39.196Z,0.00
2019-02-12T17:52:39.197Z,0.00
2019-02-12T17:53:39.295Z,0.00
2019-02-12T17:54:39.207Z,0.00
2019-02-12T17:55:39.179Z,0.00
2019-02-12T17:56:39.194Z,0.00
2019-02-12T17:57:39.171Z,0.00
2019-02-12T17:58:39.241Z,0.00
2019-02-12T17:59:39.111Z,0.00
2019-02-12T18:00:39.228Z,0.00
2019-02-12T18:01:39.359Z,0.00
2019-02-12T18:02:39.233Z,0.00
2019-02-12T18:03:39.092Z,0.00
2019-02-12T18:04:39.057Z,0.00
2019-02-12T18:05:39.044Z,0.00
2019-02-12T18:06:39.054Z,0.00
2019-02-12T18:07:39.117Z,0.00
2019-02-12T18:08:39.009Z,0.00
2019-02-12T18:09:39.023Z,0.00
2019-02-12T18:10:38.995Z,0.00
2019-02-12T18:11:38.973Z,0.00
2019-02-12T18:12:38.968Z,0.00
2019-02-12T18:13:38.952Z,0.00
2019-02-12T18:14:39.000Z,0.00
2019-02-12T18:15:39.089Z,0.00
2019-02-12T18:16:38.942Z,0.00
2019-02-12T18:17:38.913Z,0.00
2019-02-12T18:18:38.903Z,0.00
2019-02-12T18:19:38.916Z,0.00
2019-02-12T18:20:38.877Z,0.00
2019-02-12T18:21:38.874Z,0.00
2019-02-12T18:22:38.859Z,0.00
2019-02-12T18:23:38.896Z,0.00
2019-02-12T18:24:39.047Z,0.00
2019-02-12T18:25:39.240Z,0.00
2019-02-12T18:26:38.862Z,0.00
2019-02-12T18:27:38.972Z,0.00
2019-02-12T18:28:39.006Z,0.00
2019-02-12T18:29:38.776Z,0.00
2019-02-12T18:30:39.013Z,0.00
2019-02-12T18:31:38.750Z,0.00
2019-02-12T18:32:38.792Z,0.00
2019-02-12T18:33:38.799Z,0.00
2019-02-12T18:34:38.823Z,0.00
2019-02-12T18:35:38.781Z,0.00
2019-02-12T18:36:38.710Z,0.00
2019-02-12T18:37:38.876Z,0.00
2019-02-12T18:38:38.698Z,0.00
2019-02-12T18:39:38.665Z,0.00
2019-02-12T18:40:38.873Z,0.00
2019-02-12T18:41:38.641Z,0.00
